createdAt,value
2018-07-08T00:00:27.528Z,77.46
2018-07-08T00:01:27.429Z,77.65
2018-07-08T00:02:27.500Z,78.42
2018-07-08T00:03:27.568Z,78.47
2018-07-08T00:04:27.628Z,77.84
2018-07-08T00:05:27.704Z,77.46
2018-07-08T00:06:27.768Z,77.75
2018-07-08T00:07:27.825Z,77.26
2018-07-08T00:08:27.893Z,76.88
2018-07-08T00:09:27.961Z,76.31
2018-07-08T00:10:28.033Z,77.17
2018-07-08T00:11:28.121Z,77.46
2018-07-08T00:12:28.153Z,77.65
2018-07-08T00:13:28.229Z,78.32
2018-07-08T00:14:28.285Z,78.38
2018-07-08T00:15:28.457Z,78.28
2018-07-08T00:16:28.413Z,78.52
2018-07-08T00:17:28.481Z,77.71
2018-07-08T00:18:28.545Z,78.28
2018-07-08T00:19:28.609Z,78.09
2018-07-08T00:20:28.681Z,78.28
2018-07-08T00:21:28.749Z,78.00
2018-07-08T00:22:28.813Z,78.77
2018-07-08T00:23:28.873Z,78.47
2018-07-08T00:24:28.941Z,78.77
2018-07-08T00:25:29.021Z,78.77
2018-07-08T00:26:29.078Z,78.86
2018-07-08T00:27:29.137Z,79.91
2018-07-08T00:28:29.213Z,80.20
2018-07-08T00:29:29.265Z,79.44
2018-07-08T00:30:29.337Z,79.11
2018-07-08T00:31:29.402Z,79.59
2018-07-08T00:32:29.462Z,79.78
2018-07-08T00:33:29.525Z,79.78
2018-07-08T00:34:29.593Z,80.26
2018-07-08T00:35:29.662Z,81.22
2018-07-08T00:36:29.730Z,80.16
2018-07-08T00:37:29.786Z,82.08
2018-07-08T00:38:29.856Z,81.70
2018-07-08T00:39:29.925Z,82.08
2018-07-08T00:40:29.990Z,80.93
2018-07-08T00:41:30.054Z,82.18
2018-07-08T00:42:30.114Z,81.89
2018-07-08T00:43:30.186Z,82.42
2018-07-08T00:44:30.242Z,82.81
2018-07-08T00:45:30.314Z,82.81
2018-07-08T00:46:30.486Z,83.19
2018-07-08T00:47:30.439Z,82.42
2018-07-08T00:48:30.502Z,82.90
2018-07-08T00:49:30.571Z,83.58
2018-07-08T00:50:30.635Z,83.58
2018-07-08T00:51:30.712Z,83.76
2018-07-08T00:52:30.774Z,84.15
2018-07-08T00:53:30.830Z,84.72
2018-07-08T00:54:30.894Z,84.72
2018-07-08T00:55:30.959Z,83.86
2018-07-08T00:56:31.050Z,85.58
2018-07-08T00:57:31.099Z,84.91
2018-07-08T00:58:31.154Z,85.58
2018-07-08T00:59:31.219Z,84.91
2018-07-08T01:00:31.289Z,84.63
2018-07-08T01:01:31.392Z,86.07
2018-07-08T01:02:31.417Z,86.21
2018-07-08T01:03:31.479Z,86.88
2018-07-08T01:04:31.552Z,86.88
2018-07-08T01:05:31.612Z,86.41
2018-07-08T01:06:31.695Z,86.31
2018-07-08T01:07:31.750Z,85.83
2018-07-08T01:08:31.807Z,86.50
2018-07-08T01:09:31.871Z,86.69
2018-07-08T01:10:31.935Z,87.65
2018-07-08T01:11:32.007Z,86.60
2018-07-08T01:12:32.071Z,87.17
2018-07-08T01:13:32.127Z,87.17
2018-07-08T01:14:32.196Z,87.08
2018-07-08T01:15:32.269Z,87.84
2018-07-08T01:16:32.347Z,88.23
2018-07-08T01:17:32.392Z,88.61
2018-07-08T01:18:32.455Z,88.23
2018-07-08T01:19:32.519Z,89.18
2018-07-08T01:20:32.588Z,88.61
2018-07-08T01:21:32.692Z,89.09
2018-07-08T01:22:32.724Z,89.09
2018-07-08T01:23:32.780Z,89.28
2018-07-08T01:24:32.844Z,89.09
2018-07-08T01:25:32.912Z,89.57
2018-07-08T01:26:32.992Z,89.18
2018-07-08T01:27:33.048Z,90.72
2018-07-08T01:28:33.104Z,91.00
2018-07-08T01:29:33.168Z,90.19
2018-07-08T01:30:33.235Z,89.43
2018-07-08T01:31:33.302Z,89.43
2018-07-08T01:32:33.529Z,90.23
2018-07-08T01:33:33.428Z,91.49
2018-07-08T01:34:33.496Z,91.92
2018-07-08T01:35:33.560Z,91.72
2018-07-08T01:36:33.624Z,91.53
2018-07-08T01:37:33.696Z,91.05
2018-07-08T01:38:33.761Z,92.11
2018-07-08T01:39:33.821Z,92.40
2018-07-08T01:40:33.884Z,91.25
2018-07-08T01:41:33.948Z,91.72
2018-07-08T01:42:34.023Z,91.15
2018-07-08T01:43:34.084Z,91.72
2018-07-08T01:44:34.145Z,91.15
2018-07-08T01:45:34.209Z,91.15
2018-07-08T01:46:34.277Z,91.44
2018-07-08T01:47:34.345Z,90.29
2018-07-08T01:48:34.408Z,91.05
2018-07-08T01:49:34.469Z,90.67
2018-07-08T01:50:34.533Z,90.96
2018-07-08T01:51:34.597Z,89.90
2018-07-08T01:52:34.669Z,89.95
2018-07-08T01:53:34.733Z,89.47
2018-07-08T01:54:34.793Z,88.90
2018-07-08T01:55:34.862Z,88.51
2018-07-08T01:56:34.929Z,89.09
2018-07-08T01:57:34.997Z,88.90
2018-07-08T01:58:35.057Z,88.51
2018-07-08T01:59:35.115Z,88.13
2018-07-08T02:00:35.178Z,89.09
2018-07-08T02:01:35.248Z,89.28
2018-07-08T02:02:35.317Z,89.37
2018-07-08T02:03:35.688Z,89.09
2018-07-08T02:04:35.437Z,89.47
2018-07-08T02:05:35.505Z,89.47
2018-07-08T02:06:35.577Z,88.90
2018-07-08T02:07:35.630Z,88.90
2018-07-08T02:08:35.706Z,89.09
2018-07-08T02:09:35.771Z,89.18
2018-07-08T02:10:35.830Z,89.18
2018-07-08T02:11:35.890Z,87.94
2018-07-08T02:12:35.954Z,89.18
2018-07-08T02:13:36.026Z,88.13
2018-07-08T02:14:36.090Z,88.42
2018-07-08T02:15:36.150Z,88.03
2018-07-08T02:16:36.214Z,87.74
2018-07-08T02:17:36.278Z,87.84
2018-07-08T02:18:36.350Z,88.70
2018-07-08T02:19:36.418Z,87.74
2018-07-08T02:20:36.470Z,88.03
2018-07-08T02:21:36.534Z,88.03
2018-07-08T02:22:36.602Z,87.84
2018-07-08T02:23:36.670Z,88.32
2018-07-08T02:24:36.738Z,88.80
2018-07-08T02:25:36.795Z,88.80
2018-07-08T02:26:36.858Z,88.80
2018-07-08T02:27:36.922Z,88.85
2018-07-08T02:28:36.994Z,89.23
2018-07-08T02:29:37.059Z,89.04
2018-07-08T02:30:37.115Z,89.43
2018-07-08T02:31:37.190Z,89.14
2018-07-08T02:32:37.247Z,88.85
2018-07-08T02:33:37.310Z,89.81
2018-07-08T02:34:37.396Z,89.81
2018-07-08T02:35:37.443Z,89.72
2018-07-08T02:36:37.503Z,90.09
2018-07-08T02:37:37.567Z,90.09
2018-07-08T02:38:37.633Z,91.53
2018-07-08T02:39:37.704Z,90.67
2018-07-08T02:40:37.767Z,90.19
2018-07-08T02:41:37.824Z,90.96
2018-07-08T02:42:37.892Z,91.72
2018-07-08T02:43:37.952Z,91.72
2018-07-08T02:44:38.028Z,91.05
2018-07-08T02:45:38.089Z,90.86
2018-07-08T02:46:38.160Z,91.72
2018-07-08T02:47:38.212Z,91.25
2018-07-08T02:48:38.281Z,91.05
2018-07-08T02:49:38.353Z,91.82
2018-07-08T02:50:38.412Z,91.15
2018-07-08T02:51:38.472Z,92.68
2018-07-08T02:52:38.532Z,91.82
2018-07-08T02:53:38.600Z,92.11
2018-07-08T02:54:38.672Z,91.63
2018-07-08T02:55:38.736Z,92.68
2018-07-08T02:56:38.797Z,92.01
2018-07-08T02:57:38.856Z,92.11
2018-07-08T02:58:38.921Z,91.82
2018-07-08T02:59:38.988Z,91.63
2018-07-08T03:00:39.060Z,91.72
2018-07-08T03:01:39.113Z,92.58
2018-07-08T03:02:39.177Z,93.16
2018-07-08T03:03:39.241Z,92.92
2018-07-08T03:04:39.412Z,93.21
2018-07-08T03:05:39.374Z,93.30
2018-07-08T03:06:39.437Z,94.17
2018-07-08T03:07:39.497Z,93.88
2018-07-08T03:08:39.561Z,93.79
2018-07-08T03:09:39.633Z,93.59
2018-07-08T03:10:39.701Z,94.26
2018-07-08T03:11:39.757Z,94.45
2018-07-08T03:12:39.820Z,96.37
2018-07-08T03:13:39.885Z,95.79
2018-07-08T03:14:39.957Z,96.18
2018-07-08T03:15:40.022Z,96.66
2018-07-08T03:16:40.077Z,96.66
2018-07-08T03:17:40.144Z,97.42
2018-07-08T03:18:40.230Z,97.52
2018-07-08T03:19:40.286Z,96.37
2018-07-08T03:20:40.333Z,97.80
2018-07-08T03:21:40.403Z,97.23
2018-07-08T03:22:40.465Z,97.90
2018-07-08T03:23:40.529Z,99.15
2018-07-08T03:24:40.606Z,99.24
2018-07-08T03:25:40.662Z,98.95
2018-07-08T03:26:40.740Z,99.43
2018-07-08T03:27:40.786Z,99.76
2018-07-08T03:28:40.849Z,99.99
2018-07-08T03:29:40.922Z,99.99
2018-07-08T03:30:40.986Z,99.99
2018-07-08T03:31:41.042Z,99.99
2018-07-08T03:32:41.106Z,99.99
2018-07-08T03:33:41.170Z,99.99
2018-07-08T03:34:41.250Z,99.99
2018-07-08T03:35:41.298Z,99.99
2018-07-08T03:36:41.362Z,99.99
2018-07-08T03:37:41.426Z,99.99
2018-07-08T03:38:41.494Z,99.99
2018-07-08T03:39:41.562Z,99.99
2018-07-08T03:40:41.629Z,99.99
2018-07-08T03:41:41.686Z,99.99
2018-07-08T03:42:41.750Z,99.99
2018-07-08T03:43:41.814Z,99.99
2018-07-08T03:44:41.882Z,99.99
2018-07-08T03:45:41.950Z,99.99
2018-07-08T03:46:42.007Z,99.99
2018-07-08T03:47:42.071Z,99.99
2018-07-08T03:48:42.134Z,99.99
2018-07-08T03:49:42.223Z,99.99
2018-07-08T03:50:42.262Z,99.99
2018-07-08T03:51:42.326Z,99.99
2018-07-08T03:52:42.391Z,99.99
2018-07-08T03:53:42.454Z,99.99
2018-07-08T03:54:42.527Z,99.99
2018-07-08T03:55:42.590Z,99.99
2018-07-08T03:56:42.647Z,99.99
2018-07-08T03:57:42.715Z,99.99
2018-07-08T03:58:42.778Z,99.99
2018-07-08T03:59:42.847Z,99.99
2018-07-08T04:00:42.911Z,99.99
2018-07-08T04:01:42.970Z,99.99
2018-07-08T04:02:43.035Z,99.99
2018-07-08T04:03:43.100Z,99.99
2018-07-08T04:04:43.323Z,99.99
2018-07-08T04:05:43.227Z,99.99
2018-07-08T04:06:43.291Z,99.99
2018-07-08T04:07:43.359Z,99.99
2018-07-08T04:08:43.419Z,99.99
2018-07-08T04:09:43.491Z,99.99
2018-07-08T04:10:43.555Z,99.99
2018-07-08T04:11:43.611Z,99.99
2018-07-08T04:12:43.675Z,99.99
2018-07-08T04:13:43.739Z,99.99
2018-07-08T04:14:43.811Z,99.99
2018-07-08T04:15:43.875Z,99.99
2018-07-08T04:16:43.931Z,99.99
2018-07-08T04:17:43.996Z,99.99
2018-07-08T04:18:44.063Z,99.99
2018-07-08T04:19:44.282Z,99.99
2018-07-08T04:20:44.196Z,99.99
2018-07-08T04:21:44.261Z,99.99
2018-07-08T04:22:44.320Z,99.99
2018-07-08T04:23:44.384Z,99.99
2018-07-08T04:24:44.452Z,99.99
2018-07-08T04:25:44.516Z,99.99
2018-07-08T04:26:44.576Z,99.99
2018-07-08T04:27:44.640Z,99.99
2018-07-08T04:28:44.704Z,99.99
2018-07-08T04:29:44.780Z,99.43
2018-07-08T04:30:44.840Z,99.91
2018-07-08T04:31:44.896Z,99.99
2018-07-08T04:32:44.960Z,99.62
2018-07-08T04:33:45.024Z,99.24
2018-07-08T04:34:45.328Z,99.99
2018-07-08T04:35:45.152Z,99.99
2018-07-08T04:36:45.216Z,99.99
2018-07-08T04:37:45.280Z,99.24
2018-07-08T04:38:45.348Z,99.05
2018-07-08T04:39:45.416Z,99.52
2018-07-08T04:40:45.480Z,99.91
2018-07-08T04:41:45.541Z,99.99
2018-07-08T04:42:45.604Z,99.99
2018-07-08T04:43:45.671Z,99.99
2018-07-08T04:44:45.736Z,99.99
2018-07-08T04:45:45.801Z,99.99
2018-07-08T04:46:45.862Z,99.99
2018-07-08T04:47:45.925Z,99.99
2018-07-08T04:48:45.989Z,99.99
2018-07-08T04:49:46.065Z,99.99
2018-07-08T04:50:46.125Z,99.99
2018-07-08T04:51:46.181Z,99.99
2018-07-08T04:52:46.249Z,99.99
2018-07-08T04:53:46.309Z,99.99
2018-07-08T04:54:46.385Z,99.52
2018-07-08T04:55:46.445Z,99.81
2018-07-08T04:56:46.505Z,99.24
2018-07-08T04:57:46.571Z,98.95
2018-07-08T04:58:46.633Z,99.33
2018-07-08T04:59:46.702Z,98.09
2018-07-08T05:00:46.769Z,98.86
2018-07-08T05:01:46.826Z,99.91
2018-07-08T05:02:46.889Z,98.76
2018-07-08T05:03:46.953Z,97.42
2018-07-08T05:04:47.026Z,97.47
2018-07-08T05:05:47.089Z,97.56
2018-07-08T05:06:47.146Z,96.42
2018-07-08T05:07:47.211Z,96.70
2018-07-08T05:08:47.274Z,97.18
2018-07-08T05:09:47.348Z,96.80
2018-07-08T05:10:47.414Z,96.13
2018-07-08T05:11:47.470Z,96.13
2018-07-08T05:12:47.534Z,96.80
2018-07-08T05:13:47.598Z,96.03
2018-07-08T05:14:47.677Z,95.65
2018-07-08T05:15:47.734Z,94.60
2018-07-08T05:16:47.790Z,96.03
2018-07-08T05:17:47.854Z,95.84
2018-07-08T05:18:47.921Z,94.50
2018-07-08T05:19:47.994Z,95.56
2018-07-08T05:20:48.054Z,95.94
2018-07-08T05:21:48.114Z,94.98
2018-07-08T05:22:48.179Z,94.12
2018-07-08T05:23:48.244Z,94.21
2018-07-08T05:24:48.359Z,95.46
2018-07-08T05:25:48.371Z,94.79
2018-07-08T05:26:48.435Z,95.46
2018-07-08T05:27:48.504Z,96.80
2018-07-08T05:28:48.563Z,94.98
2018-07-08T05:29:48.639Z,93.93
2018-07-08T05:30:48.699Z,94.02
2018-07-08T05:31:48.755Z,94.84
2018-07-08T05:32:48.822Z,93.93
2018-07-08T05:33:48.887Z,93.21
2018-07-08T05:34:48.955Z,92.58
2018-07-08T05:35:49.055Z,92.68
2018-07-08T05:36:49.079Z,94.07
2018-07-08T05:37:49.147Z,93.83
2018-07-08T05:38:49.207Z,93.40
2018-07-08T05:39:49.489Z,93.98
2018-07-08T05:40:49.335Z,93.21
2018-07-08T05:41:49.399Z,93.59
2018-07-08T05:42:49.463Z,93.78
2018-07-08T05:43:49.527Z,93.93
2018-07-08T05:44:49.604Z,93.78
2018-07-08T05:45:49.664Z,92.54
2018-07-08T05:46:49.723Z,92.44
2018-07-08T05:47:49.784Z,92.63
2018-07-08T05:48:49.852Z,92.06
2018-07-08T05:49:49.920Z,92.06
2018-07-08T05:50:49.985Z,91.96
2018-07-08T05:51:50.044Z,91.00
2018-07-08T05:52:50.108Z,90.62
2018-07-08T05:53:50.176Z,90.23
2018-07-08T05:54:50.252Z,90.53
2018-07-08T05:55:50.300Z,91.49
2018-07-08T05:56:50.364Z,91.86
2018-07-08T05:57:50.432Z,91.00
2018-07-08T05:58:50.496Z,90.91
2018-07-08T05:59:50.564Z,90.62
2018-07-08T06:00:50.628Z,90.67
2018-07-08T06:01:50.689Z,90.38
2018-07-08T06:02:50.752Z,90.19
2018-07-08T06:03:50.816Z,88.46
2018-07-08T06:04:50.888Z,87.98
2018-07-08T06:05:50.953Z,88.37
2018-07-08T06:06:51.008Z,87.79
2018-07-08T06:07:51.072Z,88.17
2018-07-08T06:08:51.137Z,87.60
2018-07-08T06:09:51.315Z,88.08
2018-07-08T06:10:51.271Z,87.70
2018-07-08T06:11:51.329Z,87.31
2018-07-08T06:12:51.398Z,86.83
2018-07-08T06:13:51.460Z,85.88
2018-07-08T06:14:51.533Z,85.01
2018-07-08T06:15:51.597Z,84.91
2018-07-08T06:16:51.710Z,84.09
2018-07-08T06:17:51.717Z,83.76
2018-07-08T06:18:51.785Z,84.48
2018-07-08T06:19:51.854Z,83.27
2018-07-08T06:20:51.918Z,81.87
2018-07-08T06:21:51.977Z,77.98
2018-07-08T06:22:52.042Z,73.25
2018-07-08T06:23:52.109Z,70.95
2018-07-08T06:24:52.190Z,67.55
2018-07-08T06:25:52.265Z,66.33
2018-07-08T06:26:52.311Z,63.70
2018-07-08T06:27:52.382Z,61.41
2018-07-08T06:28:52.445Z,61.34
2018-07-08T06:29:52.521Z,59.05
2018-07-08T06:30:52.589Z,57.51
2018-07-08T06:31:52.654Z,57.41
2018-07-08T06:32:52.726Z,56.21
2018-07-08T06:33:52.798Z,55.43
2018-07-08T06:34:52.873Z,55.40
2018-07-08T06:35:52.953Z,53.94
2018-07-08T06:36:53.013Z,53.00
2018-07-08T06:37:53.089Z,53.24
2018-07-08T06:38:53.154Z,51.40
2018-07-08T06:39:53.386Z,50.82
2018-07-08T06:40:53.309Z,50.84
2018-07-08T06:41:53.382Z,50.36
2018-07-08T06:42:53.454Z,49.71
2018-07-08T06:43:53.533Z,49.54
2018-07-08T06:44:53.618Z,49.63
2018-07-08T06:45:53.690Z,48.20
2018-07-08T06:46:53.758Z,47.71
2018-07-08T06:47:53.834Z,46.72
2018-07-08T06:48:53.911Z,46.84
2018-07-08T06:49:53.997Z,47.23
2018-07-08T06:50:54.070Z,47.32
2018-07-08T06:51:54.192Z,46.84
2018-07-08T06:52:54.219Z,45.79
2018-07-08T06:53:54.298Z,45.81
2018-07-08T06:54:54.398Z,44.65
2018-07-08T06:55:54.450Z,44.96
2018-07-08T06:56:54.526Z,44.20
2018-07-08T06:57:54.627Z,42.82
2018-07-08T06:58:54.683Z,43.62
2018-07-08T06:59:54.774Z,43.35
2018-07-08T07:00:54.847Z,42.55
2018-07-08T07:01:54.919Z,42.96
2018-07-08T07:02:55.003Z,41.99
2018-07-08T07:03:55.074Z,42.25
2018-07-08T07:04:55.287Z,43.33
2018-07-08T07:05:55.235Z,41.19
2018-07-08T07:06:55.315Z,41.67
2018-07-08T07:07:55.399Z,42.33
2018-07-08T07:08:55.477Z,41.75
2018-07-08T07:09:55.558Z,42.74
2018-07-08T07:10:55.635Z,42.47
2018-07-08T07:11:55.707Z,41.38
2018-07-08T07:12:55.787Z,42.08
2018-07-08T07:13:55.871Z,42.18
2018-07-08T07:14:55.955Z,42.00
2018-07-08T07:15:56.032Z,40.86
2018-07-08T07:16:56.107Z,40.27
2018-07-08T07:17:56.188Z,39.78
2018-07-08T07:18:56.264Z,40.39
2018-07-08T07:19:56.383Z,39.88
2018-07-08T07:20:56.424Z,39.86
2018-07-08T07:21:56.504Z,41.15
2018-07-08T07:22:56.628Z,40.01
2018-07-08T07:23:56.663Z,38.04
2018-07-08T07:24:56.752Z,37.93
2018-07-08T07:25:56.831Z,39.02
2018-07-08T07:26:56.908Z,37.27
2018-07-08T07:27:56.987Z,37.27
2018-07-08T07:28:57.069Z,36.00
2018-07-08T07:29:57.408Z,37.75
2018-07-08T07:30:57.224Z,37.48
2018-07-08T07:31:57.304Z,35.98
2018-07-08T07:32:57.384Z,35.69
2018-07-08T07:33:57.464Z,36.55
2018-07-08T07:34:57.552Z,36.84
2018-07-08T07:35:57.629Z,37.04
2018-07-08T07:36:57.746Z,37.62
2018-07-08T07:37:57.784Z,38.48
2018-07-08T07:38:57.864Z,37.37
2018-07-08T07:39:57.948Z,37.76
2018-07-08T07:40:58.037Z,37.56
2018-07-08T07:41:58.105Z,37.31
2018-07-08T07:42:58.185Z,38.14
2018-07-08T07:43:58.265Z,35.71
2018-07-08T07:44:58.357Z,35.24
2018-07-08T07:45:58.421Z,34.67
2018-07-08T07:46:58.501Z,33.61
2018-07-08T07:47:58.581Z,34.21
2018-07-08T07:48:58.661Z,33.53
2018-07-08T07:49:58.757Z,33.62
2018-07-08T07:50:58.830Z,33.85
2018-07-08T07:51:58.914Z,34.71
2018-07-08T07:52:58.981Z,36.04
2018-07-08T07:53:59.061Z,36.72
2018-07-08T07:54:59.161Z,34.56
2018-07-08T07:55:59.222Z,35.06
2018-07-08T07:56:59.297Z,35.93
2018-07-08T07:57:59.378Z,35.91
2018-07-08T07:58:59.482Z,36.43
2018-07-08T07:59:59.545Z,35.85
2018-07-08T08:00:59.634Z,35.69
2018-07-08T08:01:59.698Z,36.11
2018-07-08T08:02:59.778Z,33.59
2018-07-08T08:03:59.854Z,32.13
2018-07-08T08:04:59.945Z,33.23
2018-07-08T08:06:00.020Z,34.61
2018-07-08T08:07:00.099Z,35.69
2018-07-08T08:08:00.178Z,33.83
2018-07-08T08:09:00.250Z,33.77
2018-07-08T08:10:00.491Z,32.29
2018-07-08T08:11:00.410Z,32.39
2018-07-08T08:12:00.587Z,32.94
2018-07-08T08:13:00.570Z,35.26
2018-07-08T08:14:00.647Z,35.65
2018-07-08T08:15:00.731Z,36.00
2018-07-08T08:16:00.811Z,36.74
2018-07-08T08:17:00.882Z,35.73
2018-07-08T08:18:00.962Z,36.94
2018-07-08T08:19:01.039Z,38.54
2018-07-08T08:20:01.287Z,37.85
2018-07-08T08:21:01.205Z,38.09
2018-07-08T08:22:01.287Z,37.02
2018-07-08T08:23:01.355Z,37.37
2018-07-08T08:24:01.432Z,37.31
2018-07-08T08:25:01.516Z,36.96
2018-07-08T08:26:01.595Z,36.51
2018-07-08T08:27:01.668Z,35.94
2018-07-08T08:28:01.745Z,35.04
2018-07-08T08:29:01.825Z,34.32
2018-07-08T08:30:01.907Z,34.52
2018-07-08T08:31:01.987Z,35.20
2018-07-08T08:32:02.056Z,35.90
2018-07-08T08:33:02.140Z,34.75
2018-07-08T08:34:02.211Z,34.58
2018-07-08T08:35:02.312Z,34.50
2018-07-08T08:36:02.368Z,34.52
2018-07-08T08:37:02.450Z,33.77
2018-07-08T08:38:02.524Z,34.58
2018-07-08T08:39:02.604Z,35.27
2018-07-08T08:40:02.688Z,34.11
2018-07-08T08:41:02.763Z,34.89
2018-07-08T08:42:02.836Z,33.92
2018-07-08T08:43:02.915Z,35.13
2018-07-08T08:44:02.991Z,31.88
2018-07-08T08:45:03.095Z,30.02
2018-07-08T08:46:03.177Z,30.43
2018-07-08T08:47:03.228Z,31.62
2018-07-08T08:48:03.308Z,31.60
2018-07-08T08:49:03.388Z,31.60
2018-07-08T08:50:03.472Z,30.74
2018-07-08T08:51:03.548Z,29.84
2018-07-08T08:52:03.620Z,30.72
2018-07-08T08:53:03.701Z,31.62
2018-07-08T08:54:03.776Z,31.23
2018-07-08T08:55:03.860Z,31.52
2018-07-08T08:56:03.940Z,30.33
2018-07-08T08:57:04.013Z,31.78
2018-07-08T08:58:04.090Z,32.06
2018-07-08T08:59:04.169Z,34.72
2018-07-08T09:00:04.257Z,33.17
2018-07-08T09:01:04.340Z,32.86
2018-07-08T09:02:04.401Z,32.56
2018-07-08T09:03:04.481Z,33.45
2018-07-08T09:04:04.561Z,31.92
2018-07-08T09:05:04.640Z,33.23
2018-07-08T09:06:04.725Z,33.92
2018-07-08T09:07:04.801Z,32.86
2018-07-08T09:08:04.873Z,31.39
2018-07-08T09:09:04.948Z,32.76
2018-07-08T09:10:05.029Z,30.82
2018-07-08T09:11:05.257Z,31.29
2018-07-08T09:12:05.186Z,31.29
2018-07-08T09:13:05.261Z,30.80
2018-07-08T09:14:05.340Z,31.98
2018-07-08T09:15:05.417Z,30.10
2018-07-08T09:16:05.501Z,30.09
2018-07-08T09:17:05.579Z,31.25
2018-07-08T09:18:05.649Z,31.54
2018-07-08T09:19:05.725Z,30.47
2018-07-08T09:20:05.801Z,30.96
2018-07-08T09:21:05.889Z,30.65
2018-07-08T09:22:05.965Z,32.91
2018-07-08T09:23:06.033Z,31.87
2018-07-08T09:24:06.168Z,30.09
2018-07-08T09:25:06.189Z,30.37
2018-07-08T09:26:06.421Z,30.24
2018-07-08T09:27:06.350Z,30.63
2018-07-08T09:28:06.418Z,31.02
2018-07-08T09:29:06.497Z,32.11
2018-07-08T09:30:06.574Z,31.66
2018-07-08T09:31:06.654Z,32.65
2018-07-08T09:32:06.730Z,33.72
2018-07-08T09:33:06.801Z,32.16
2018-07-08T09:34:06.882Z,31.31
2018-07-08T09:35:06.954Z,30.63
2018-07-08T09:36:07.037Z,30.65
2018-07-08T09:37:07.114Z,30.96
2018-07-08T09:38:07.182Z,31.33
2018-07-08T09:39:07.277Z,32.11
2018-07-08T09:40:07.330Z,32.11
2018-07-08T09:41:07.427Z,32.89
2018-07-08T09:42:07.494Z,32.21
2018-07-08T09:43:07.558Z,31.64
2018-07-08T09:44:07.642Z,31.54
2018-07-08T09:45:07.711Z,31.56
2018-07-08T09:46:07.790Z,31.36
2018-07-08T09:47:07.872Z,30.29
2018-07-08T09:48:07.934Z,31.95
2018-07-08T09:49:08.013Z,31.16
2018-07-08T09:50:08.090Z,30.38
2018-07-08T09:51:08.162Z,29.91
2018-07-08T09:52:08.270Z,29.83
2018-07-08T09:53:08.310Z,28.83
2018-07-08T09:54:08.386Z,29.00
2018-07-08T09:55:08.458Z,30.26
2018-07-08T09:56:08.535Z,30.45
2018-07-08T09:57:08.614Z,31.93
2018-07-08T09:58:08.691Z,32.32
2018-07-08T09:59:08.759Z,31.64
2018-07-08T10:00:08.827Z,30.94
2018-07-08T10:01:08.909Z,30.81
2018-07-08T10:02:08.988Z,31.59
2018-07-08T10:03:09.067Z,32.76
2018-07-08T10:04:09.131Z,31.88
2018-07-08T10:05:09.207Z,32.39
2018-07-08T10:06:09.279Z,32.99
2018-07-08T10:07:09.367Z,33.28
2018-07-08T10:08:09.423Z,32.01
2018-07-08T10:09:09.499Z,31.35
2018-07-08T10:10:09.571Z,30.76
2018-07-08T10:11:09.647Z,31.45
2018-07-08T10:12:09.728Z,31.15
2018-07-08T10:13:09.805Z,32.32
2018-07-08T10:14:09.939Z,31.54
2018-07-08T10:15:09.939Z,32.62
2018-07-08T10:16:10.017Z,31.25
2018-07-08T10:17:10.195Z,29.98
2018-07-08T10:18:10.160Z,31.75
2018-07-08T10:19:10.232Z,31.23
2018-07-08T10:20:10.397Z,31.05
2018-07-08T10:21:10.380Z,30.06
2018-07-08T10:22:10.460Z,30.73
2018-07-08T10:23:10.532Z,31.80
2018-07-08T10:24:10.605Z,32.15
2018-07-08T10:25:10.678Z,33.23
2018-07-08T10:26:10.754Z,33.20
2018-07-08T10:27:10.876Z,33.69
2018-07-08T10:28:10.900Z,32.79
2018-07-08T10:29:10.960Z,34.06
2018-07-08T10:30:11.037Z,34.27
2018-07-08T10:31:11.108Z,33.39
2018-07-08T10:32:11.476Z,32.11
2018-07-08T10:33:11.256Z,33.77
2018-07-08T10:34:11.325Z,35.03
2018-07-08T10:35:11.397Z,34.86
2018-07-08T10:36:11.469Z,33.49
2018-07-08T10:37:11.549Z,33.39
2018-07-08T10:38:11.641Z,33.58
2018-07-08T10:39:11.684Z,35.21
2018-07-08T10:40:11.765Z,35.10
2018-07-08T10:41:11.829Z,35.10
2018-07-08T10:42:11.909Z,34.80
2018-07-08T10:43:11.981Z,35.96
2018-07-08T10:44:12.045Z,35.96
2018-07-08T10:45:12.113Z,37.12
2018-07-08T10:46:12.193Z,36.65
2018-07-08T10:47:12.373Z,35.66
2018-07-08T10:48:12.329Z,35.57
2018-07-08T10:49:12.405Z,35.97
2018-07-08T10:50:12.550Z,34.72
2018-07-08T10:51:12.544Z,34.80
2018-07-08T10:52:12.621Z,34.22
2018-07-08T10:53:12.689Z,34.72
2018-07-08T10:54:12.757Z,34.52
2018-07-08T10:55:12.826Z,35.97
2018-07-08T10:56:12.897Z,36.55
2018-07-08T10:57:12.976Z,36.55
2018-07-08T10:58:13.045Z,35.68
2018-07-08T10:59:13.110Z,35.97
2018-07-08T11:00:13.177Z,37.27
2018-07-08T11:01:13.249Z,38.44
2018-07-08T11:02:13.321Z,35.71
2018-07-08T11:03:13.501Z,36.16
2018-07-08T11:04:13.461Z,35.88
2018-07-08T11:05:13.534Z,36.46
2018-07-08T11:06:13.602Z,37.37
2018-07-08T11:07:13.682Z,37.98
2018-07-08T11:08:13.750Z,38.75
2018-07-08T11:09:13.822Z,37.60
2018-07-08T11:10:13.886Z,36.65
2018-07-08T11:11:13.954Z,35.19
2018-07-08T11:12:14.030Z,35.84
2018-07-08T11:13:14.109Z,38.27
2018-07-08T11:14:14.166Z,37.49
2018-07-08T11:15:14.240Z,38.39
2018-07-08T11:16:14.306Z,37.14
2018-07-08T11:17:14.378Z,38.40
2018-07-08T11:18:14.455Z,38.91
2018-07-08T11:19:14.522Z,37.64
2018-07-08T11:20:14.593Z,36.98
2018-07-08T11:21:14.671Z,36.57
2018-07-08T11:22:14.730Z,37.70
2018-07-08T11:23:14.806Z,38.89
2018-07-08T11:24:14.882Z,38.50
2018-07-08T11:25:14.938Z,38.70
2018-07-08T11:26:15.010Z,38.01
2018-07-08T11:27:15.078Z,37.72
2018-07-08T11:28:15.163Z,37.32
2018-07-08T11:29:15.223Z,36.93
2018-07-08T11:30:15.291Z,37.60
2018-07-08T11:31:15.366Z,38.67
2018-07-08T11:32:15.430Z,37.60
2018-07-08T11:33:15.510Z,38.96
2018-07-08T11:34:15.579Z,37.82
2018-07-08T11:35:15.647Z,38.29
2018-07-08T11:36:15.715Z,37.60
2018-07-08T11:37:15.783Z,38.11
2018-07-08T11:38:15.869Z,38.19
2018-07-08T11:39:15.931Z,38.29
2018-07-08T11:40:15.995Z,39.69
2018-07-08T11:41:16.070Z,38.52
2018-07-08T11:42:16.135Z,37.45
2018-07-08T11:43:16.511Z,37.93
2018-07-08T11:44:16.287Z,39.39
2018-07-08T11:45:16.347Z,39.03
2018-07-08T11:46:16.415Z,37.97
2018-07-08T11:47:16.483Z,36.32
2018-07-08T11:48:16.560Z,36.61
2018-07-08T11:49:16.631Z,36.80
2018-07-08T11:50:16.696Z,38.18
2018-07-08T11:51:16.768Z,37.50
2018-07-08T11:52:16.840Z,37.68
2018-07-08T11:53:16.916Z,38.62
2018-07-08T11:54:16.993Z,40.37
2018-07-08T11:55:17.050Z,39.61
2018-07-08T11:56:17.124Z,40.48
2018-07-08T11:57:17.201Z,40.21
2018-07-08T11:58:17.500Z,39.53
2018-07-08T11:59:17.332Z,38.05
2018-07-08T12:00:17.397Z,38.64
2018-07-08T12:01:17.480Z,38.05
2018-07-08T12:02:17.547Z,39.51
2018-07-08T12:03:17.620Z,39.82
2018-07-08T12:04:17.688Z,38.48
2018-07-08T12:05:17.753Z,38.87
2018-07-08T12:06:17.829Z,37.31
2018-07-08T12:07:17.901Z,38.44
2018-07-08T12:08:17.972Z,38.91
2018-07-08T12:09:18.045Z,39.69
2018-07-08T12:10:18.109Z,38.60
2018-07-08T12:11:18.176Z,39.20
2018-07-08T12:12:18.254Z,40.29
2018-07-08T12:13:18.321Z,39.80
2018-07-08T12:14:18.541Z,38.17
2018-07-08T12:15:18.463Z,37.87
2018-07-08T12:16:18.532Z,38.65
2018-07-08T12:17:18.601Z,38.07
2018-07-08T12:18:18.673Z,39.14
2018-07-08T12:19:18.749Z,38.85
2018-07-08T12:20:18.849Z,38.83
2018-07-08T12:21:18.920Z,38.42
2018-07-08T12:22:18.953Z,38.93
2018-07-08T12:23:19.031Z,38.15
2018-07-08T12:24:19.109Z,39.00
2018-07-08T12:25:19.166Z,39.69
2018-07-08T12:26:19.330Z,40.19
2018-07-08T12:27:19.309Z,39.24
2018-07-08T12:28:19.377Z,38.85
2018-07-08T12:29:19.463Z,39.53
2018-07-08T12:30:19.525Z,38.77
2018-07-08T12:31:19.590Z,39.04
2018-07-08T12:32:19.662Z,38.34
2018-07-08T12:33:19.733Z,39.12
2018-07-08T12:34:19.809Z,39.82
2018-07-08T12:35:19.882Z,39.24
2018-07-08T12:36:19.941Z,39.84
2018-07-08T12:37:20.014Z,38.56
2018-07-08T12:38:20.085Z,39.14
2018-07-08T12:39:20.221Z,40.70
2018-07-08T12:40:20.226Z,39.53
2018-07-08T12:41:20.298Z,38.75
2018-07-08T12:42:20.366Z,39.55
2018-07-08T12:43:20.450Z,37.81
2018-07-08T12:44:20.542Z,38.28
2018-07-08T12:45:20.610Z,38.64
2018-07-08T12:46:20.654Z,40.01
2018-07-08T12:47:20.722Z,39.03
2018-07-08T12:48:20.801Z,39.41
2018-07-08T12:49:20.870Z,39.80
2018-07-08T12:50:20.938Z,39.39
2018-07-08T12:51:21.020Z,38.93
2018-07-08T12:52:21.074Z,39.24
2018-07-08T12:53:21.146Z,40.01